Time;durP1;ratioP1;P1;durP2;ratioP2;P2;SDS_P1;SDS_P2;PMS_P1;PMS_P2;Temp;Humidity;BMP_temperature;BMP_pressure;BME280_temperature;BME280_humidity;BME280_pressure;Samples;Min_cycle;Max_cycle;Signal;HPM_P1;HPM_P2
2022/12/11 00:00:53;;;;;;;17.07;10.67;;;-2.00;44.30;;;;;;4991479;28;20295;-81
2022/12/11 00:03:18;;;;;;;16.73;10.77;;;-2.00;35.70;;;;;;4976216;28;20209;-83
2022/12/11 00:05:45;;;;;;;18.03;12.37;;;-2.00;26.90;;;;;;4977058;28;20251;-82
2022/12/11 00:08:11;;;;;;;31.93;17.53;;;-2.00;34.60;;;;;;4977124;28;20259;-82
2022/12/11 00:10:37;;;;;;;21.20;13.73;;;-2.10;36.50;;;;;;4978024;28;20247;-81
2022/12/11 00:13:03;;;;;;;17.77;11.67;;;-2.00;36.90;;;;;;4985504;28;20689;-83
2022/12/11 00:15:29;;;;;;;14.37;10.20;;;-2.00;29.70;;;;;;4976763;28;20235;-83
2022/12/11 00:17:55;;;;;;;19.13;12.27;;;-1.90;31.50;;;;;;4976903;28;20262;-82
2022/12/11 00:20:20;;;;;;;18.13;11.00;;;-1.90;33.60;;;;;;4977655;28;20192;-80
2022/12/11 00:22:46;;;;;;;17.70;10.93;;;-1.90;31.10;;;;;;4979452;28;20213;-82
2022/12/11 00:25:11;;;;;;;29.10;16.57;;;-1.90;33.50;;;;;;4977721;28;20189;-81
2022/12/11 00:27:37;;;;;;;22.97;15.43;;;-1.90;37.00;;;;;;4979174;28;20231;-82
2022/12/11 00:30:04;;;;;;;16.23;11.17;;;-1.90;38.20;;;;;;4977971;28;20189;-82
2022/12/11 00:32:30;;;;;;;13.87;9.60;;;-1.80;30.50;;;;;;4975942;28;20224;-82
2022/12/11 00:34:56;;;;;;;15.67;10.70;;;-1.90;27.70;;;;;;4977908;28;20192;-81
2022/12/11 00:37:22;;;;;;;16.87;10.23;;;-1.90;30.50;;;;;;4976856;28;20270;-80
2022/12/11 00:39:47;;;;;;;14.40;9.23;;;-1.80;22.70;;;;;;4979213;28;20677;-81
2022/12/11 00:42:13;;;;;;;16.00;10.47;;;-1.90;23.50;;;;;;4978349;28;20621;-81
2022/12/11 00:44:38;;;;;;;14.73;10.07;;;-1.90;19.20;;;;;;4975587;28;20235;-81
2022/12/11 00:47:04;;;;;;;14.37;9.73;;;-2.00;22.60;;;;;;4976520;28;20674;-81
2022/12/11 00:49:30;;;;;;;14.53;9.43;;;-2.00;19.10;;;;;;4977599;28;20244;-81
2022/12/11 00:51:55;;;;;;;13.97;9.30;;;-2.00;15.10;;;;;;4976035;28;20231;-81
2022/12/11 00:54:21;;;;;;;12.40;8.83;;;-2.00;12.90;;;;;;4975963;28;20220;-81
2022/12/11 00:56:47;;;;;;;14.33;9.80;;;-2.00;12.60;;;;;;4977556;28;20618;-81
2022/12/11 00:59:12;;;;;;;13.87;8.77;;;-2.00;17.40;;;;;;4976536;28;20177;-82
2022/12/11 01:01:38;;;;;;;14.27;9.87;;;-2.00;16.30;;;;;;4978492;28;20538;-82
2022/12/11 01:04:04;;;;;;;15.40;9.60;;;-1.90;39.90;;;;;;4977686;28;20251;-81
2022/12/11 01:06:29;;;;;;;17.57;10.83;;;-1.90;23.30;;;;;;4977473;28;20237;-83
2022/12/11 01:11:41;;;;;;;14.90;9.53;;;-1.80;14.90;;;;;;4977677;28;20188;-81
2022/12/11 01:14:07;;;;;;;15.83;9.67;;;-1.80;10.70;;;;;;4975338;28;20200;-82
2022/12/11 01:16:33;;;;;;;13.67;9.70;;;-1.80;11.50;;;;;;4975701;28;20879;-82
2022/12/11 01:18:58;;;;;;;14.20;9.17;;;-1.90;7.80;;;;;;4980420;28;20184;-81
2022/12/11 01:21:24;;;;;;;13.37;8.70;;;-2.00;8.00;;;;;;4980575;28;20654;-81
2022/12/11 01:23:50;;;;;;;13.73;8.77;;;-2.00;7.00;;;;;;4980789;28;20205;-82
2022/12/11 01:26:16;;;;;;;14.63;9.43;;;-2.00;11.70;;;;;;4978728;28;20562;-81
2022/12/11 01:28:43;;;;;;;13.77;9.43;;;-2.00;16.20;;;;;;4994725;28;20193;-82
2022/12/11 01:31:14;;;;;;;14.30;9.47;;;-2.00;11.50;;;;;;4978465;28;20343;-82
2022/12/11 01:33:40;;;;;;;14.03;9.33;;;-2.00;23.60;;;;;;4993826;28;20586;-80
2022/12/11 01:36:10;;;;;;;13.27;8.77;;;-2.00;7.80;;;;;;4995437;28;20625;-81
2022/12/11 01:38:36;;;;;;;12.17;8.53;;;-2.00;10.80;;;;;;4986059;28;20224;-81
2022/12/11 01:41:02;;;;;;;12.80;8.93;;;-2.00;9.60;;;;;;4980163;28;20191;-81
2022/12/11 01:43:28;;;;;;;15.53;9.20;;;-1.70;5.80;;;;;;4980183;28;20248;-82
2022/12/11 01:45:53;;;;;;;13.67;8.87;;;-2.10;6.00;;;;;;4983345;28;20275;-82
2022/12/11 01:48:24;;;;;;;14.43;9.30;;;-2.10;8.70;;;;;;4982964;28;20188;-82
2022/12/11 01:50:52;;;;;;;14.83;9.13;;;-2.00;7.80;;;;;;4980003;28;20181;-83
2022/12/11 01:53:42;;;;;;;14.07;8.83;;;-2.00;3.50;;;;;;4979969;28;20219;-83
2022/12/11 01:56:09;;;;;;;13.87;8.47;;;-2.00;1.40;;;;;;4982276;28;20685;-81
2022/12/11 01:58:42;;;;;;;12.90;8.03;;;-2.00;3.70;;;;;;4978170;28;20705;-82
2022/12/11 02:01:13;;;;;;;13.10;8.97;;;-2.00;1.00;;;;;;4979741;28;20184;-81
2022/12/11 02:03:39;;;;;;;11.60;8.07;;;-2.00;1.00;;;;;;4987349;28;20217;-83
2022/12/11 02:06:05;;;;;;;10.70;8.10;;;-2.00;1.00;;;;;;4980818;28;20245;-80
2022/12/11 02:08:30;;;;;;;14.07;8.73;;;-2.00;1.00;;;;;;4981875;28;20678;-82
2022/12/11 02:11:19;;;;;;;12.17;8.20;;;-2.00;1.00;;;;;;4981466;28;20694;-81
2022/12/11 02:14:04;;;;;;;11.47;8.07;;;-2.00;1.00;;;;;;4987637;28;20208;-83
2022/12/11 02:16:43;;;;;;;10.90;8.23;;;-2.20;1.00;;;;;;4980848;28;20180;-79
2022/12/11 02:19:37;;;;;;;12.70;8.30;;;-2.20;1.00;;;;;;4980122;28;20551;-82
2022/12/11 02:22:08;;;;;;;10.67;7.77;;;-2.20;1.00;;;;;;4980610;28;20188;-81
2022/12/11 02:24:56;;;;;;;11.67;8.13;;;-2.20;1.00;;;;;;4978875;28;20195;-82
2022/12/11 02:27:39;;;;;;;11.63;8.07;;;-2.20;1.00;;;;;;4996167;28;20235;-83
2022/12/11 02:30:08;;;;;;;13.00;8.17;;;-2.20;1.00;;;;;;4986674;28;20188;-83
2022/12/11 02:32:39;;;;;;;12.67;8.47;;;-2.10;1.00;;;;;;4978920;28;20255;-84
2022/12/11 02:35:21;;;;;;;12.53;8.13;;;-2.00;1.00;;;;;;4981163;28;20184;-81
2022/12/11 02:37:50;;;;;;;11.63;7.67;;;-2.10;1.00;;;;;;4977846;28;20579;-82
2022/12/11 02:40:20;;;;;;;14.43;8.63;;;-2.10;1.00;;;;;;4979684;28;20189;-82
2022/12/11 02:42:49;;;;;;;12.77;8.50;;;-2.10;1.00;;;;;;4979132;28;20208;-82
2022/12/11 02:45:17;;;;;;;12.87;8.90;;;-2.00;1.00;;;;;;4987437;28;20189;-82
2022/12/11 02:47:46;;;;;;;11.77;8.13;;;-2.10;1.00;;;;;;4979236;28;20193;-83
2022/12/11 02:50:18;;;;;;;14.73;8.77;;;-2.00;1.00;;;;;;4978951;28;20215;-84
2022/12/11 02:52:46;;;;;;;11.87;8.00;;;-2.10;1.00;;;;;;4978275;28;20219;-82
2022/12/11 02:55:14;;;;;;;13.50;8.80;;;-2.10;1.00;;;;;;4977563;28;20246;-83
2022/12/11 02:58:03;;;;;;;15.40;9.17;;;-2.10;1.00;;;;;;4978672;28;20238;-82
2022/12/11 03:00:28;;;;;;;12.23;8.57;;;-2.10;1.00;;;;;;4995727;28;20192;-81
2022/12/11 03:02:55;;;;;;;14.37;9.73;;;-2.00;1.00;;;;;;4980303;28;20219;-82
2022/12/11 03:05:21;;;;;;;14.90;9.87;;;-2.10;1.00;;;;;;4980281;28;20185;-83
2022/12/11 03:07:47;;;;;;;14.30;9.83;;;-2.10;1.00;;;;;;4978944;28;21137;-82
2022/12/11 03:10:17;;;;;;;13.57;9.70;;;-2.10;1.00;;;;;;4978630;28;20189;-81
2022/12/11 03:12:46;;;;;;;13.40;9.20;;;-2.10;1.00;;;;;;4994189;28;20204;-82
2022/12/11 03:15:19;;;;;;;14.33;9.03;;;-2.10;1.00;;;;;;4978313;28;20193;-81
2022/12/11 03:17:50;;;;;;;13.20;9.07;;;-2.10;1.00;;;;;;4978893;28;20574;-81
2022/12/11 03:20:25;;;;;;;13.83;9.10;;;-2.10;1.00;;;;;;4978965;28;20746;-82
2022/12/11 03:23:03;;;;;;;12.43;8.13;;;-2.10;1.00;;;;;;4977048;28;20209;-81
2022/12/11 03:25:43;;;;;;;11.93;7.93;;;-2.20;1.00;;;;;;4977044;28;20216;-81
2022/12/11 03:28:12;;;;;;;11.87;7.37;;;-2.10;1.00;;;;;;4979388;28;20230;-82
2022/12/11 03:30:40;;;;;;;12.77;7.83;;;-2.10;1.00;;;;;;4979384;28;20247;-82
2022/12/11 03:33:17;;;;;;;9.50;7.17;;;-2.30;1.00;;;;;;4978125;28;20706;-80
2022/12/11 03:35:48;;;;;;;12.87;7.77;;;-2.20;1.00;;;;;;4977923;28;20634;-81
2022/12/11 03:38:24;;;;;;;13.03;7.80;;;-2.10;1.00;;;;;;4976405;28;20481;-82
2022/12/11 03:40:55;;;;;;;11.67;7.73;;;-2.20;1.00;;;;;;4977684;28;20188;-81
2022/12/11 03:43:21;;;;;;;12.13;8.00;;;-2.20;1.00;;;;;;4984140;28;20200;-81
2022/12/11 03:45:49;;;;;;;13.77;8.70;;;-2.20;1.00;;;;;;4976201;28;20204;-82
2022/12/11 03:48:17;;;;;;;12.27;8.53;;;-2.20;1.00;;;;;;4977174;28;20188;-81
2022/12/11 03:50:45;;;;;;;11.07;7.57;;;-2.10;1.00;;;;;;4978107;28;20220;-80
2022/12/11 03:53:11;;;;;;;12.47;8.07;;;-2.20;1.00;;;;;;4975828;28;20214;-81
2022/12/11 03:55:39;;;;;;;12.50;8.47;;;-2.20;1.00;;;;;;4976584;28;20563;-80
2022/12/11 03:58:05;;;;;;;13.67;9.40;;;-2.10;1.00;;;;;;4976731;28;20212;-81
2022/12/11 04:00:30;;;;;;;13.37;9.20;;;-2.10;1.00;;;;;;4976521;28;20185;-80
2022/12/11 04:03:11;;;;;;;11.80;8.13;;;-2.10;1.00;;;;;;4976024;28;20239;-81
2022/12/11 04:05:37;;;;;;;15.33;9.83;;;-2.10;1.00;;;;;;4975741;28;20292;-81
2022/12/11 04:08:03;;;;;;;15.13;9.40;;;-2.10;1.00;;;;;;4976793;28;20316;-82
2022/12/11 04:10:28;;;;;;;14.33;9.93;;;-2.20;1.00;;;;;;4977582;28;20192;-81
2022/12/11 04:12:54;;;;;;;14.03;9.17;;;-2.10;1.00;;;;;;4976066;28;20208;-81
2022/12/11 04:15:20;;;;;;;14.90;9.53;;;-2.10;1.00;;;;;;4976622;28;20774;-81
2022/12/11 04:26:03;;;;;;;13.47;9.23;;;-2.00;6.10;;;;;;4977991;28;20187;-81
2022/12/11 04:28:29;;;;;;;13.67;8.97;;;-2.00;7.80;;;;;;4974387;28;20695;-81
2022/12/11 04:30:57;;;;;;;12.90;8.40;;;-2.10;3.90;;;;;;4975795;28;20199;-81
2022/12/11 04:33:23;;;;;;;13.03;9.50;;;-2.10;5.40;;;;;;4982663;28;20224;-81
2022/12/11 04:35:48;;;;;;;15.40;10.40;;;-2.10;9.20;;;;;;4975130;28;20192;-81
2022/12/11 04:38:14;;;;;;;13.00;9.33;;;-2.10;12.10;;;;;;4975816;28;20223;-80
2022/12/11 04:40:39;;;;;;;14.43;10.03;;;-2.10;3.10;;;;;;4976692;28;20286;-82
2022/12/11 04:43:05;;;;;;;12.47;9.00;;;-2.10;1.00;;;;;;4979219;28;20201;-81
2022/12/11 04:45:31;;;;;;;12.47;8.77;;;-2.20;1.00;;;;;;4979202;28;20192;-81
2022/12/11 04:47:56;;;;;;;13.03;9.13;;;-2.10;1.00;;;;;;4974883;28;20191;-84
2022/12/11 04:50:22;;;;;;;12.37;8.97;;;-2.10;1.00;;;;;;4976512;28;20195;-83
2022/12/11 04:52:47;;;;;;;11.27;8.27;;;-2.10;1.00;;;;;;4976158;28;20212;-81
2022/12/11 04:55:13;;;;;;;13.03;9.20;;;-2.10;1.00;;;;;;4977550;28;20188;-81
2022/12/11 04:57:39;;;;;;;12.23;8.40;;;-2.10;1.00;;;;;;4976208;28;20286;-83
2022/12/11 05:00:07;;;;;;;10.90;8.20;;;-2.00;10.30;;;;;;4977386;28;20267;-81
2022/12/11 05:02:37;;;;;;;12.27;8.80;;;-2.00;1.00;;;;;;4983564;28;20212;-81
2022/12/11 05:05:08;;;;;;;9.40;7.20;;;-2.10;1.00;;;;;;4975343;28;20732;-81
2022/12/11 05:07:35;;;;;;;11.63;7.80;;;-2.00;1.00;;;;;;4976619;28;20192;-83
2022/12/11 05:10:00;;;;;;;12.17;8.43;;;-1.90;1.00;;;;;;4992712;28;20682;-80
2022/12/11 05:12:26;;;;;;;10.83;8.20;;;-2.00;1.00;;;;;;4977387;28;20213;-81
2022/12/11 05:14:53;;;;;;;10.87;8.00;;;-2.00;1.00;;;;;;4978131;28;20192;-80
2022/12/11 05:17:20;;;;;;;12.57;7.67;;;-2.00;6.10;;;;;;4977192;28;20698;-83
2022/12/11 05:19:50;;;;;;;11.70;7.90;;;-2.20;1.00;;;;;;4974706;28;20220;-81
2022/12/11 05:22:17;;;;;;;11.30;8.23;;;-2.10;1.00;;;;;;4975216;28;20177;-81
2022/12/11 05:24:43;;;;;;;12.70;9.13;;;-2.10;2.20;;;;;;4976689;28;20259;-81
2022/12/11 05:27:09;;;;;;;11.90;7.77;;;-2.20;5.00;;;;;;4984630;28;20189;-80
2022/12/11 05:29:35;;;;;;;11.40;8.80;;;-2.10;1.90;;;;;;4976144;28;20198;-82
2022/12/11 05:32:01;;;;;;;12.17;7.80;;;-2.10;1.00;;;;;;4977030;28;20276;-83
2022/12/11 05:34:27;;;;;;;12.67;8.00;;;-2.10;1.00;;;;;;4977583;28;20228;-80
2022/12/11 05:36:53;;;;;;;10.97;8.07;;;-2.10;1.00;;;;;;4976140;28;20235;-82
2022/12/11 05:39:18;;;;;;;11.93;8.27;;;-2.00;1.00;;;;;;4992162;28;20416;-82
2022/12/11 05:41:44;;;;;;;11.80;7.87;;;-2.00;1.00;;;;;;4976926;28;20188;-83
2022/12/11 05:44:13;;;;;;;11.73;8.13;;;-1.90;1.00;;;;;;4975486;28;20239;-83
2022/12/11 05:46:39;;;;;;;11.13;7.83;;;-2.00;1.00;;;;;;4974739;28;20192;-82
2022/12/11 05:49:05;;;;;;;11.90;7.93;;;-2.00;1.00;;;;;;4977406;28;20208;-81
2022/12/11 05:51:33;;;;;;;12.03;7.80;;;-2.10;1.00;;;;;;4983833;28;20209;-81
2022/12/11 05:53:59;;;;;;;11.80;8.37;;;-2.10;1.00;;;;;;4992192;28;20237;-81
2022/12/11 05:56:27;;;;;;;13.67;8.13;;;-2.00;1.00;;;;;;4978476;28;20634;-81
2022/12/11 05:58:54;;;;;;;12.43;8.77;;;-2.00;1.00;;;;;;4975353;28;20241;-81
2022/12/11 06:01:48;;;;;;;10.20;7.43;;;-2.00;1.00;;;;;;4974359;28;20188;-81
2022/12/11 06:04:14;;;;;;;8.90;6.97;;;-2.00;1.00;;;;;;4977592;28;20715;-79
2022/12/11 06:06:40;;;;;;;9.87;7.00;;;-1.80;1.00;;;;;;4980774;28;20180;-81
2022/12/11 06:09:05;;;;;;;11.13;7.93;;;-1.90;1.00;;;;;;4992775;28;20194;-81
2022/12/11 06:11:32;;;;;;;11.80;8.57;;;-2.00;1.00;;;;;;4979557;28;20258;-81
2022/12/11 06:14:00;;;;;;;10.40;8.27;;;-2.00;1.00;;;;;;4980575;28;20208;-81
2022/12/11 06:16:25;;;;;;;11.17;8.00;;;-2.00;1.00;;;;;;4979813;28;20180;-82
2022/12/11 06:18:51;;;;;;;10.03;7.70;;;-2.00;1.00;;;;;;4979526;28;20373;-81
2022/12/11 06:21:31;;;;;;;10.80;7.37;;;-2.10;1.00;;;;;;4980242;28;20185;-81
2022/12/11 06:23:58;;;;;;;11.23;7.03;;;-1.90;1.00;;;;;;4979472;28;20351;-80
2022/12/11 06:26:24;;;;;;;10.57;7.47;;;-2.00;1.00;;;;;;4982087;28;20192;-80
2022/12/11 06:28:50;;;;;;;11.00;7.43;;;-2.00;1.00;;;;;;4980037;28;20274;-82
2022/12/11 06:31:16;;;;;;;10.13;7.10;;;-2.00;1.00;;;;;;4980662;28;20337;-80
2022/12/11 06:33:42;;;;;;;10.13;7.33;;;-2.00;1.00;;;;;;4993150;28;20609;-81
2022/12/11 06:36:10;;;;;;;13.00;8.97;;;-2.00;1.00;;;;;;4980860;28;20195;-81
2022/12/11 06:38:36;;;;;;;13.03;8.67;;;-2.00;1.00;;;;;;4978592;28;20358;-82
2022/12/11 06:41:05;;;;;;;13.63;9.57;;;-2.10;1.00;;;;;;4979184;28;20279;-81
2022/12/11 06:43:36;;;;;;;14.37;8.83;;;-1.00;1.00;;;;;;4977724;28;20200;-82
2022/12/11 06:46:13;;;;;;;10.27;7.20;;;-1.90;1.00;;;;;;4979054;28;20195;-81
2022/12/11 06:48:41;;;;;;;10.93;7.53;;;-1.80;1.00;;;;;;4978121;28;20195;-81
2022/12/11 06:51:09;;;;;;;13.07;7.80;;;-1.80;1.00;;;;;;4995660;28;20195;-80
2022/12/11 06:53:35;;;;;;;10.60;7.23;;;-1.80;1.00;;;;;;4993236;28;20259;-81
2022/12/11 06:56:06;;;;;;;10.40;6.80;;;-1.90;1.00;;;;;;4978982;28;20200;-83
2022/12/11 06:58:34;;;;;;;9.73;6.80;;;-2.00;1.00;;;;;;4978414;28;20311;-82
2022/12/11 07:01:00;;;;;;;12.60;7.63;;;-2.00;1.00;;;;;;4977546;28;20197;-81
2022/12/11 07:03:26;;;;;;;10.17;6.87;;;-2.10;1.00;;;;;;4976764;28;20709;-80
2022/12/11 07:05:52;;;;;;;11.40;7.03;;;-2.10;1.00;;;;;;4979177;28;20187;-81
2022/12/11 07:08:17;;;;;;;11.70;7.50;;;-2.20;1.00;;;;;;4978029;28;20176;-81
2022/12/11 07:10:43;;;;;;;11.70;6.80;;;-2.10;1.00;;;;;;4979463;28;20193;-81
2022/12/11 07:13:08;;;;;;;12.23;8.13;;;-2.10;1.00;;;;;;4977235;28;20717;-81
2022/12/11 07:15:35;;;;;;;11.43;7.03;;;-2.10;1.00;;;;;;4977683;28;20279;-83
2022/12/11 07:18:00;;;;;;;11.23;7.10;;;-2.10;1.00;;;;;;4976845;28;20208;-81
2022/12/11 07:20:26;;;;;;;10.70;6.90;;;-2.10;1.00;;;;;;4977294;28;20188;-83
2022/12/11 07:22:53;;;;;;;9.53;6.50;;;-2.10;1.00;;;;;;4978501;28;20891;-81
2022/12/11 07:25:18;;;;;;;11.10;7.57;;;-2.10;1.00;;;;;;4977375;28;20834;-80
2022/12/11 07:27:44;;;;;;;12.00;7.40;;;-2.10;1.00;;;;;;4978744;28;20193;-80
2022/12/11 07:30:10;;;;;;;12.37;8.10;;;-2.10;1.00;;;;;;4977553;28;20191;-80
2022/12/11 07:32:36;;;;;;;12.70;8.00;;;-2.00;1.00;;;;;;4977215;28;20717;-82
2022/12/11 07:35:03;;;;;;;11.67;7.90;;;-2.00;1.00;;;;;;4977843;28;20185;-82
2022/12/11 07:37:28;;;;;;;14.00;9.37;;;-2.10;1.00;;;;;;4978782;28;20219;-81
2022/12/11 07:39:54;;;;;;;12.73;8.47;;;-2.20;1.00;;;;;;4982277;28;20185;-83
2022/12/11 07:42:20;;;;;;;13.57;9.17;;;-2.20;1.00;;;;;;4980001;28;20227;-82
2022/12/11 07:44:45;;;;;;;13.87;9.03;;;-2.20;1.00;;;;;;4979008;28;20764;-85
2022/12/11 07:47:11;;;;;;;14.77;9.10;;;-2.20;1.00;;;;;;4981202;28;20188;-83
2022/12/11 07:49:37;;;;;;;13.83;9.03;;;-2.20;1.00;;;;;;4977297;28;20195;-81
2022/12/11 07:52:02;;;;;;;13.43;9.30;;;-2.10;1.00;;;;;;4977018;28;20651;-80
2022/12/11 07:54:28;;;;;;;14.90;9.67;;;-2.10;1.00;;;;;;4976906;28;20243;-82
2022/12/11 07:56:54;;;;;;;13.67;8.83;;;-2.10;1.00;;;;;;4977103;28;20241;-82
2022/12/11 07:59:19;;;;;;;14.97;9.07;;;-2.10;1.00;;;;;;4975690;28;20186;-82
2022/12/11 08:01:45;;;;;;;13.47;7.83;;;-2.10;1.00;;;;;;4977849;28;20191;-82
2022/12/11 08:04:14;;;;;;;12.50;8.50;;;-2.20;1.00;;;;;;4976340;28;20208;-80
2022/12/11 08:06:41;;;;;;;18.37;11.00;;;-2.20;1.00;;;;;;4976390;28;20203;-81
2022/12/11 08:09:10;;;;;;;16.43;11.97;;;-2.20;1.00;;;;;;4975347;28;20198;-82
2022/12/11 08:11:36;;;;;;;13.33;8.93;;;-2.10;1.00;;;;;;4996188;28;20180;-79
2022/12/11 08:14:01;;;;;;;21.93;15.13;;;-2.10;1.00;;;;;;4976258;28;20713;-80
2022/12/11 08:16:28;;;;;;;22.63;16.03;;;-2.20;1.00;;;;;;4976334;28;20220;-80
2022/12/11 08:18:54;;;;;;;12.23;8.33;;;-2.10;1.00;;;;;;4977535;28;20262;-82
2022/12/11 08:21:24;;;;;;;13.40;8.17;;;-2.10;1.00;;;;;;4975977;28;20220;-82
2022/12/11 08:23:51;;;;;;;12.07;8.37;;;-2.00;1.00;;;;;;4974670;28;20267;-82
2022/12/11 08:26:20;;;;;;;17.33;10.30;;;-2.00;1.00;;;;;;4974802;28;20199;-80
2022/12/11 08:28:45;;;;;;;14.07;8.60;;;-2.00;1.00;;;;;;4991170;28;20196;-82
2022/12/11 08:31:13;;;;;;;13.43;9.23;;;-1.90;1.00;;;;;;4977471;28;20234;-82
2022/12/11 08:33:40;;;;;;;19.73;13.27;;;-1.80;1.00;;;;;;4978244;28;20326;-81
2022/12/11 08:36:09;;;;;;;15.80;10.20;;;-1.70;1.00;;;;;;4992221;28;20322;-80
2022/12/11 08:38:35;;;;;;;13.93;9.90;;;-1.70;1.00;;;;;;4974515;28;20209;-83
2022/12/11 08:41:11;;;;;;;22.10;13.57;;;-1.80;1.00;;;;;;4976823;28;20180;-82
2022/12/11 08:43:38;;;;;;;16.60;11.53;;;-1.70;1.00;;;;;;4988350;28;20208;-79
2022/12/11 08:46:05;;;;;;;13.50;8.40;;;-1.80;1.00;;;;;;4988011;28;20212;-80
2022/12/11 08:48:32;;;;;;;11.93;7.70;;;-1.70;1.00;;;;;;4977365;28;20187;-81
2022/12/11 08:51:00;;;;;;;12.33;7.77;;;-1.70;1.00;;;;;;4976990;28;20185;-81
2022/12/11 08:53:30;;;;;;;11.77;7.70;;;-1.70;1.00;;;;;;4976337;28;20236;-80
2022/12/11 08:56:10;;;;;;;15.80;11.57;;;-1.60;1.00;;;;;;4977708;28;20642;-82
2022/12/11 08:58:36;;;;;;;8.77;5.77;;;-1.60;1.00;;;;;;4974424;28;20207;-83
2022/12/11 09:01:08;;;;;;;10.03;6.80;;;0.00;1.00;;;;;;4975898;28;20196;-82
2022/12/11 09:03:34;;;;;;;8.87;6.50;;;-1.40;1.00;;;;;;4978658;28;20327;-81
2022/12/11 09:06:04;;;;;;;10.97;7.10;;;-1.40;1.00;;;;;;4983670;28;20625;-82
2022/12/11 09:08:31;;;;;;;10.17;6.23;;;-0.80;1.00;;;;;;4975188;28;20193;-82
2022/12/11 09:11:05;;;;;;;11.30;7.47;;;-1.40;1.00;;;;;;4975483;28;20216;-81
2022/12/11 09:13:31;;;;;;;9.13;5.77;;;-1.30;1.00;;;;;;4983146;28;20217;-81
2022/12/11 09:15:56;;;;;;;7.00;5.57;;;-1.20;1.00;;;;;;4974836;28;20184;-83
2022/12/11 09:18:22;;;;;;;9.87;6.73;;;-1.30;1.00;;;;;;4975333;28;20218;-82
2022/12/11 09:20:48;;;;;;;8.27;6.13;;;-1.20;1.00;;;;;;4979506;28;20268;-82
2022/12/11 09:23:13;;;;;;;8.60;5.63;;;-1.10;1.00;;;;;;4976523;28;20200;-81
2022/12/11 09:25:39;;;;;;;7.13;5.17;;;-1.00;1.00;;;;;;4975185;28;20189;-81
2022/12/11 09:28:05;;;;;;;7.37;5.17;;;-1.00;1.00;;;;;;4973876;28;20185;-81
2022/12/11 09:30:30;;;;;;;8.47;5.17;;;-1.00;1.00;;;;;;4974667;28;20215;-82
2022/12/11 09:32:56;;;;;;;8.60;6.00;;;-0.90;1.00;;;;;;4977417;28;20298;-81
2022/12/11 09:35:21;;;;;;;15.87;10.57;;;-1.00;1.00;;;;;;4974378;28;20191;-81
2022/12/11 09:37:47;;;;;;;29.17;17.80;;;-1.00;1.00;;;;;;4973919;28;20805;-82
2022/12/11 09:40:13;;;;;;;23.87;13.93;;;-0.90;1.00;;;;;;4979826;28;20267;-83
2022/12/11 09:42:53;;;;;;;17.53;11.17;;;-0.80;1.00;;;;;;4981083;28;20236;-81
2022/12/11 09:45:19;;;;;;;11.47;8.23;;;-0.70;1.00;;;;;;4980031;28;20205;-82
2022/12/11 09:47:49;;;;;;;11.57;8.57;;;-0.80;1.00;;;;;;4987798;28;20189;-82
2022/12/11 09:50:34;;;;;;;11.13;8.00;;;-1.00;1.00;;;;;;4980385;28;20188;-81
2022/12/11 09:53:11;;;;;;;10.40;7.77;;;-1.10;1.00;;;;;;4979475;28;20220;-85
2022/12/11 09:56:13;;;;;;;11.97;8.00;;;-1.20;1.00;;;;;;4981039;28;20186;-82
2022/12/11 09:59:02;;;;;;;10.00;6.87;;;-1.40;1.00;;;;;;4994491;28;20226;-81
2022/12/11 10:01:38;;;;;;;11.23;6.93;;;-1.60;1.00;;;;;;4976792;28;20180;-81
2022/12/11 10:04:10;;;;;;;9.27;6.30;;;-1.70;1.00;;;;;;4979057;28;20263;-82
2022/12/11 10:06:47;;;;;;;8.20;5.50;;;-1.70;1.00;;;;;;4993578;28;20216;-81
2022/12/11 10:09:12;;;;;;;9.80;5.97;;;-1.70;1.00;;;;;;4980724;28;20176;-81
2022/12/11 10:11:41;;;;;;;8.63;6.37;;;-1.50;1.00;;;;;;4976313;28;20181;-80
2022/12/11 10:14:29;;;;;;;9.20;5.27;;;-1.50;1.00;;;;;;4978044;28;20199;-81
2022/12/11 10:17:19;;;;;;;7.50;5.50;;;-1.50;1.00;;;;;;4979078;28;20651;-82
2022/12/11 10:19:45;;;;;;;6.13;4.70;;;-1.40;1.00;;;;;;4979271;28;20181;-85
2022/12/11 10:22:24;;;;;;;8.73;5.30;;;-1.40;1.00;;;;;;4978477;28;20191;-76
2022/12/11 10:24:57;;;;;;;8.03;5.27;;;-1.30;1.00;;;;;;4986561;28;20179;-78
2022/12/11 10:27:30;;;;;;;9.80;5.67;;;-1.30;1.00;;;;;;4978923;28;20180;-76
2022/12/11 10:30:24;;;;;;;8.13;5.27;;;-1.30;1.00;;;;;;4979961;28;20269;-79
2022/12/11 10:33:02;;;;;;;8.53;5.90;;;-1.30;1.00;;;;;;4981289;28;20734;-78
2022/12/11 10:35:47;;;;;;;8.60;5.40;;;-1.30;1.00;;;;;;4970468;28;20189;-79
2022/12/11 10:38:18;;;;;;;7.67;5.23;;;-1.30;1.00;;;;;;4971165;28;21289;-79
2022/12/11 10:40:51;;;;;;;7.67;5.37;;;-1.30;1.00;;;;;;4974987;28;20227;-79
2022/12/11 10:43:16;;;;;;;7.27;5.33;;;-1.40;1.00;;;;;;4980356;28;20209;-78
2022/12/11 10:45:54;;;;;;;8.80;5.90;;;-1.30;1.00;;;;;;4980235;28;20519;-79
2022/12/11 10:48:20;;;;;;;8.23;5.30;;;-1.30;1.00;;;;;;4981852;28;20192;-79
2022/12/11 10:51:00;;;;;;;6.50;4.17;;;-1.30;1.00;;;;;;4977129;28;20308;-80
2022/12/11 10:53:26;;;;;;;13.87;4.70;;;-1.30;1.00;;;;;;4982557;28;20205;-78
2022/12/11 10:55:52;;;;;;;6.17;3.90;;;-1.40;1.00;;;;;;4982747;28;20263;-79
2022/12/11 10:58:24;;;;;;;9.17;7.17;;;-1.40;1.00;;;;;;4979821;28;20205;-79
2022/12/11 11:01:01;;;;;;;78.07;8.10;;;-1.50;1.00;;;;;;4980530;28;20662;-78
2022/12/11 11:03:28;;;;;;;16.80;5.13;;;-1.50;1.00;;;;;;4980329;28;20207;-78
2022/12/11 11:06:19;;;;;;;9.20;4.77;;;-1.40;1.00;;;;;;4981001;28;20189;-80
2022/12/11 11:08:47;;;;;;;6.80;4.80;;;-1.30;1.00;;;;;;4980006;28;20197;-80
2022/12/11 11:11:35;;;;;;;8.00;4.87;;;-1.30;1.00;;;;;;4981217;28;20638;-79
2022/12/11 11:14:17;;;;;;;9.07;4.80;;;-1.30;1.00;;;;;;4974690;28;20228;-79
2022/12/11 11:16:51;;;;;;;6.00;4.20;;;-1.30;1.00;;;;;;4973854;28;20188;-76
2022/12/11 11:19:28;;;;;;;7.10;4.40;;;-1.30;1.00;;;;;;4971069;28;20184;-78
2022/12/11 11:22:16;;;;;;;8.77;4.80;;;-1.30;1.00;;;;;;4980367;28;20183;-77
2022/12/11 11:24:46;;;;;;;12.27;5.07;;;-1.30;1.00;;;;;;4980113;28;20246;-78
2022/12/11 11:27:34;;;;;;;5.53;4.00;;;-1.30;1.00;;;;;;4978987;28;20706;-78
2022/12/11 11:30:04;;;;;;;6.50;4.20;;;-1.30;1.00;;;;;;4977974;28;20233;-77
2022/12/11 11:32:38;;;;;;;6.83;4.70;;;-1.30;1.00;;;;;;4986172;28;20223;-77
2022/12/11 11:35:12;;;;;;;6.50;4.73;;;-1.30;1.00;;;;;;4983168;28;20263;-78
2022/12/11 11:37:41;;;;;;;6.07;4.40;;;-1.30;1.00;;;;;;4979980;28;21288;-79
2022/12/11 11:40:37;;;;;;;7.00;4.73;;;-1.30;1.00;;;;;;4982558;28;20290;-79
2022/12/11 11:43:12;;;;;;;7.70;4.27;;;-1.30;1.00;;;;;;4981439;28;20227;-79
2022/12/11 11:45:52;;;;;;;14.33;9.20;;;-1.30;1.00;;;;;;4978178;28;20283;-78
2022/12/11 11:48:43;;;;;;;7.20;4.50;;;-1.30;1.00;;;;;;4980469;28;20181;-80
2022/12/11 11:51:20;;;;;;;6.83;4.13;;;-1.20;1.00;;;;;;4985941;28;20207;-76
2022/12/11 11:53:49;;;;;;;6.90;4.83;;;0.20;1.00;;;;;;4980715;28;20212;-80
2022/12/11 11:56:27;;;;;;;7.07;4.23;;;-1.00;1.00;;;;;;4978928;28;20199;-78
2022/12/11 11:59:05;;;;;;;5.77;4.13;;;-1.00;1.00;;;;;;4979544;28;20208;-79
2022/12/11 12:01:31;;;;;;;6.70;4.70;;;-0.90;1.00;;;;;;4977712;28;20188;-80
2022/12/11 12:03:59;;;;;;;7.40;4.90;;;-0.70;1.00;;;;;;4979438;28;20298;-80
2022/12/11 12:06:38;;;;;;;8.87;5.60;;;-0.50;1.00;;;;;;4978463;28;20199;-79
2022/12/11 12:09:25;;;;;;;8.43;5.37;;;-0.40;1.00;;;;;;4979159;28;20196;-82
2022/12/11 12:12:16;;;;;;;9.83;5.80;;;-0.30;1.00;;;;;;4978895;28;20227;-79
2022/12/11 12:15:00;;;;;;;8.93;6.17;;;-0.30;1.00;;;;;;4976585;28;20205;-79
2022/12/11 12:17:37;;;;;;;8.57;5.60;;;-0.20;1.00;;;;;;4993524;28;20223;-80
2022/12/11 12:20:14;;;;;;;10.07;6.50;;;-0.10;1.00;;;;;;4971479;28;20235;-80
2022/12/11 12:22:40;;;;;;;15.10;8.53;;;-0.10;1.00;;;;;;4976447;28;20200;-78
2022/12/11 12:25:23;;;;;;;14.17;7.70;;;0.00;1.00;;;;;;4977603;28;20255;-81
2022/12/11 12:28:18;;;;;;;21.57;15.17;;;-0.10;1.00;;;;;;4975474;28;20195;-80
2022/12/11 12:31:17;;;;;;;14.23;9.87;;;-0.10;1.00;;;;;;4975816;28;20278;-79
2022/12/11 12:33:48;;;;;;;15.13;7.40;;;-0.60;1.00;;;;;;4975919;28;20224;-78
2022/12/11 12:36:37;;;;;;;12.47;7.27;;;0.10;1.00;;;;;;4976494;28;20230;-79
2022/12/11 12:39:06;;;;;;;11.47;7.47;;;0.00;1.00;;;;;;4978377;28;20204;-79
2022/12/11 12:41:48;;;;;;;11.87;7.57;;;0.00;1.00;;;;;;4976036;28;20196;-78
2022/12/11 12:44:16;;;;;;;9.53;7.27;;;-0.10;1.00;;;;;;4977761;28;21343;-79
2022/12/11 12:46:49;;;;;;;10.03;7.00;;;-0.30;1.00;;;;;;4976107;28;20191;-78
2022/12/11 12:49:40;;;;;;;16.37;9.73;;;-0.30;1.00;;;;;;4975833;28;20810;-80
2022/12/11 12:52:16;;;;;;;11.37;7.63;;;-0.40;1.00;;;;;;4973701;28;20193;-79
2022/12/11 12:55:12;;;;;;;12.07;8.57;;;-0.40;1.00;;;;;;4973647;28;20197;-79
2022/12/11 12:57:32;;;;;;;12.57;7.83;;;-0.50;1.00;;;;;;4977214;28;20221;-80
2022/12/11 12:59:58;;;;;;;13.93;8.43;;;-0.40;1.00;;;;;;4990841;22;20247;-79
2022/12/11 13:02:24;;;;;;;12.07;8.20;;;-0.50;1.00;;;;;;4969558;28;20568;-79
2022/12/11 13:05:02;;;;;;;11.63;7.90;;;-0.50;1.00;;;;;;4969170;28;20200;-79
2022/12/11 13:07:30;;;;;;;12.73;7.73;;;-0.60;1.00;;;;;;4968671;28;20212;-78
2022/12/11 13:09:58;;;;;;;12.60;8.03;;;-0.60;1.00;;;;;;4969417;28;20536;-79
2022/12/11 13:12:42;;;;;;;11.10;7.27;;;-0.70;1.00;;;;;;4966001;28;20185;-79
2022/12/11 13:15:24;;;;;;;11.53;7.53;;;-0.70;1.00;;;;;;4969216;28;20184;-78